St. Roch: Past 24 Hour Conditions

 

Chesterfield Inlet Airport

03:00 PM CST 27 November 2014
This table is a summary of hourly weather conditions for the past 24 hours.
Date / Time
(CST)
Wind(knots) Conditions Visibility(km) Pressure(kPa) Air tempC) Relative humidity(%) Dew pointC) Wind Chill
27 November 2014
15:00 WNW 11 Light Snow 13 100.8 -30 72 -34 -43
14:00 WNW 13 Light Snow 13 100.8 -30 73 -33 -44
13:00 W 12 Partly Cloudy 24 100.8 -31 72 -34 -45
12:00 WNW 10 Partly Cloudy 24 100.9 -30 71 -34 -43
11:00 W 13 Partly Cloudy 24 100.9 -31 71 -34 -45
10:00 W 14 Partly Cloudy 24 100.9 -31 71 -35 -46
9:00 WNW 14 Mainly Sunny 16 100.9 -31 72 -35 -47
8:00 WNW 10 Clear 24 100.9 -31 72 -35 -44
7:00 WNW 15 Drifting Snow 24 101.0 -31 72 -35 -47
6:00 WNW 19 N/A N/A 101.0 -31 72 -34 -47
5:00 WNW 17 N/A N/A 101.0 -30 72 -34 -46
4:00 WNW 14 N/A N/A 101.0 -30 72 -34 -45
3:00 WNW 17 gust 23 N/A N/A 101.0 -29 72 -33 -45
2:00 WNW 15 N/A N/A 100.9 -29 73 -32 -43
1:00 WNW 23 N/A N/A 100.9 -28 74 -31 -45
0:00 WNW 19 N/A N/A 100.8 -27 75 -30 -42
26 November 2014
23:00 W 16 N/A N/A 100.8 -26 75 -29 -40
22:00 W 15 N/A N/A 100.8 -24 76 -28 -38
21:00 WSW 13 N/A N/A 100.8 -24 76 -27 -36
20:00 W 13 N/A N/A 100.8 -22 75 -25 -34
19:00 WSW 10 N/A N/A 100.8 -22 76 -25 -33
18:00 W 15 N/A N/A 100.8 -21 75 -25 -34
17:00 W 18 Ice Crystals 13 100.9 -22 76 -25 -35
16:00 W 18 Drifting Snow 13 100.9 -22 75 -25 -36
15:00 W 15 Cloudy 13 101.0 -22 74 -26 -35
 
Map of Arctic - Eastern Arctic marine weather areas Baker Lake Airport Chesterfield Inlet Airport Coral Harbour Airport Gjoa Haven Airport Kugaaruk Airport Rankin Inlet Airport Shepherd Bay Airport Whale Cove Airport Arctic Bay Brevoort Island Qikiqtarjuaq Airport Cape Dorset Airport Cape Dyer Cape Hooper Clyde Airport Grise Fiord Airport Hall Beach Airport Igloolik Airport Iqaluit Airport Longstaff Bluff Pangnirtung Airport Pond Inlet Airport Repulse Bay Airport Resolute Airport Resolution Island Rowley Island Airport Taloyoak Airport Wager Bay Akulivik Airport Ivujivik Airport Puvirnituq Airport Kangiqsujuaq Airport Kangirsuk Airport Quaqtaq Airport Tasiujaq Airport Cape Kakkiviak Cape Kiglapait Nain Airport Saglek Cape Mercy Kimmirut Airport Aupaluk Airport Salluit Airport Kangiqsualujjuaq Airport Fort Ross
Legend: buoyBuoy land stationLand Station